IGO136 VABB-VOMM
Flight info
| Callsign | IGO136 |
|---|---|
| Flight time | 1h 48m |
| Altitude | 35000 |
| Route | VEVAK2A EPKOS Q9 OPAMO DCT GUANI |
| Aircraft | A21N/M-SDE2E3FGHIRWXY/LB1 |
Departure
| Time | 2026-05-05 09:37 |
|---|---|
| Airport | Chhatrapati Shivaji Maharaj International Airport (VABB) |
Arrival
| Time | 2026-05-05 11:25 |
|---|---|
| Airport | Chennai International Airport (VOMM) |
| Time | Latitude | Longitude | Altitude | Speed | Heading |
|---|---|---|---|---|---|
| 2026-05-05 09:20 | 19.09144 | 72.85526 | 31 ft | 0 kts | 360° |
| 2026-05-05 09:25 | 19.09131 | 72.85526 | 31 ft | 2 kts | 0° |
| 2026-05-05 09:25 | 19.09116 | 72.85526 | 31 ft | 2 kts | 359° |
| 2026-05-05 09:26 | 19.09102 | 72.85523 | 30 ft | 2 kts | 40° |
| 2026-05-05 09:26 | 19.09092 | 72.85510 | 30 ft | 2 kts | 73° |
| 2026-05-05 09:26 | 19.09091 | 72.85501 | 30 ft | 1 kts | 94° |
| 2026-05-05 09:26 | 19.09091 | 72.85496 | 30 ft | 0 kts | 89° |
| 2026-05-05 09:28 | 19.09091 | 72.85500 | 30 ft | 1 kts | 90° |
| 2026-05-05 09:28 | 19.09092 | 72.85516 | 30 ft | 3 kts | 89° |
| 2026-05-05 09:29 | 19.09092 | 72.85548 | 30 ft | 5 kts | 89° |
| 2026-05-05 09:29 | 19.09082 | 72.85591 | 30 ft | 7 kts | 137° |
| 2026-05-05 09:29 | 19.09034 | 72.85632 | 29 ft | 10 kts | 113° |
| 2026-05-05 09:29 | 19.09028 | 72.85711 | 29 ft | 11 kts | 90° |
| 2026-05-05 09:30 | 19.09029 | 72.85799 | 29 ft | 12 kts | 89° |
| 2026-05-05 09:30 | 19.09030 | 72.85882 | 30 ft | 10 kts | 89° |
| 2026-05-05 09:30 | 19.09031 | 72.85949 | 32 ft | 8 kts | 89° |
| 2026-05-05 09:30 | 19.09031 | 72.86003 | 32 ft | 6 kts | 90° |
| 2026-05-05 09:31 | 19.09032 | 72.86050 | 32 ft | 6 kts | 89° |
| 2026-05-05 09:31 | 19.09032 | 72.86097 | 32 ft | 6 kts | 90° |
| 2026-05-05 09:31 | 19.09032 | 72.86145 | 32 ft | 6 kts | 89° |
| 2026-05-05 09:31 | 19.09034 | 72.86195 | 32 ft | 7 kts | 88° |
| 2026-05-05 09:32 | 19.09035 | 72.86261 | 32 ft | 10 kts | 89° |
| 2026-05-05 09:32 | 19.09036 | 72.86364 | 32 ft | 17 kts | 90° |
| 2026-05-05 09:32 | 19.09039 | 72.86511 | 32 ft | 22 kts | 90° |
| 2026-05-05 09:32 | 19.09041 | 72.86692 | 32 ft | 26 kts | 89° |
| 2026-05-05 09:33 | 19.09043 | 72.86884 | 31 ft | 26 kts | 89° |
| 2026-05-05 09:33 | 19.09045 | 72.87075 | 29 ft | 25 kts | 88° |
| 2026-05-05 09:33 | 19.09048 | 72.87252 | 29 ft | 23 kts | 90° |
| 2026-05-05 09:33 | 19.09049 | 72.87423 | 29 ft | 22 kts | 88° |
| 2026-05-05 09:34 | 19.09054 | 72.87580 | 31 ft | 20 kts | 89° |
| 2026-05-05 09:34 | 19.09054 | 72.87700 | 32 ft | 11 kts | 90° |
| 2026-05-05 09:34 | 19.09048 | 72.87785 | 32 ft | 11 kts | 117° |
| 2026-05-05 09:34 | 19.08975 | 72.87808 | 32 ft | 11 kts | 180° |
| 2026-05-05 09:35 | 19.08897 | 72.87791 | 31 ft | 10 kts | 226° |
| 2026-05-05 09:35 | 19.08884 | 72.87678 | 29 ft | 0 kts | 268° |
| 2026-05-05 09:35 | 19.08884 | 72.87675 | 29 ft | 0 kts | 268° |
| 2026-05-05 09:36 | 19.08884 | 72.87673 | 29 ft | 0 kts | 268° |
| 2026-05-05 09:36 | 19.08883 | 72.87640 | 29 ft | 20 kts | 269° |
| 2026-05-05 09:36 | 19.08874 | 72.87214 | 28 ft | 93 kts | 270° |
| 2026-05-05 09:36 | 19.08866 | 72.86308 | 35 ft | 151 kts | 268° |
| 2026-05-05 09:37 | 19.08861 | 72.85036 | 230 ft | 182 kts | 270° |
| 2026-05-05 09:37 | 19.08899 | 72.83701 | 815 ft | 186 kts | 269° |
| 2026-05-05 09:37 | 19.08879 | 72.82272 | 1260 ft | 202 kts | 267° |
| 2026-05-05 09:37 | 19.08836 | 72.80746 | 1604 ft | 219 kts | 266° |
| 2026-05-05 09:38 | 19.08786 | 72.79036 | 1914 ft | 240 kts | 267° |
| 2026-05-05 09:38 | 19.08734 | 72.77222 | 2317 ft | 258 kts | 267° |
| 2026-05-05 09:38 | 19.08683 | 72.75281 | 2924 ft | 267 kts | 266° |
| 2026-05-05 09:38 | 19.08289 | 72.73382 | 3642 ft | 269 kts | 240° |
| 2026-05-05 09:39 | 19.07100 | 72.71926 | 4358 ft | 269 kts | 212° |
| 2026-05-05 09:39 | 19.05361 | 72.71224 | 5060 ft | 271 kts | 185° |
| 2026-05-05 09:39 | 19.03523 | 72.71470 | 5740 ft | 274 kts | 157° |
| 2026-05-05 09:39 | 19.01958 | 72.72613 | 6444 ft | 276 kts | 135° |
| 2026-05-05 09:40 | 19.00545 | 72.73960 | 7138 ft | 280 kts | 146° |
| 2026-05-05 09:40 | 18.98748 | 72.74695 | 7779 ft | 285 kts | 174° |
| 2026-05-05 09:40 | 18.96773 | 72.74747 | 8509 ft | 287 kts | 180° |
| 2026-05-05 09:40 | 18.94773 | 72.74717 | 9182 ft | 291 kts | 180° |
| 2026-05-05 09:41 | 18.92748 | 72.74672 | 9846 ft | 295 kts | 181° |
| 2026-05-05 09:41 | 18.90675 | 72.74619 | 10434 ft | 302 kts | 181° |
| 2026-05-05 09:41 | 18.88516 | 72.74562 | 10745 ft | 318 kts | 181° |
| 2026-05-05 09:41 | 18.86275 | 72.74503 | 11033 ft | 334 kts | 181° |
| 2026-05-05 09:42 | 18.83878 | 72.74441 | 11386 ft | 348 kts | 181° |
| 2026-05-05 09:42 | 18.81460 | 72.74377 | 11978 ft | 353 kts | 181° |
| 2026-05-05 09:42 | 18.79010 | 72.74398 | 12638 ft | 355 kts | 175° |
| 2026-05-05 09:42 | 18.76564 | 72.74762 | 13280 ft | 358 kts | 167° |
| 2026-05-05 09:43 | 18.74181 | 72.75463 | 13911 ft | 360 kts | 162° |
| 2026-05-05 09:43 | 18.71782 | 72.76296 | 14543 ft | 363 kts | 161° |
| 2026-05-05 09:43 | 18.69402 | 72.77142 | 15153 ft | 366 kts | 161° |
| 2026-05-05 09:43 | 18.67001 | 72.77992 | 15757 ft | 369 kts | 161° |
| 2026-05-05 09:44 | 18.64574 | 72.78847 | 16355 ft | 372 kts | 161° |
| 2026-05-05 09:44 | 18.62111 | 72.79708 | 16949 ft | 375 kts | 161° |
| 2026-05-05 09:44 | 18.59621 | 72.80576 | 17536 ft | 378 kts | 161° |
| 2026-05-05 09:44 | 18.57129 | 72.81444 | 18109 ft | 380 kts | 161° |
| 2026-05-05 09:45 | 18.54648 | 72.82306 | 18668 ft | 383 kts | 161° |
| 2026-05-05 09:45 | 18.52120 | 72.83183 | 19224 ft | 386 kts | 161° |
| 2026-05-05 09:45 | 18.49544 | 72.84077 | 19777 ft | 389 kts | 161° |
| 2026-05-05 09:45 | 18.46987 | 72.84964 | 20314 ft | 391 kts | 161° |
| 2026-05-05 09:46 | 18.44404 | 72.85860 | 20847 ft | 394 kts | 161° |
| 2026-05-05 09:46 | 18.41801 | 72.86762 | 21365 ft | 397 kts | 161° |
| 2026-05-05 09:46 | 18.39179 | 72.87669 | 21869 ft | 400 kts | 161° |
| 2026-05-05 09:46 | 18.36533 | 72.88586 | 22363 ft | 402 kts | 161° |
| 2026-05-05 09:47 | 18.33874 | 72.89506 | 22844 ft | 405 kts | 161° |
| 2026-05-05 09:47 | 18.31225 | 72.90422 | 23306 ft | 407 kts | 161° |
| 2026-05-05 09:47 | 18.28525 | 72.91356 | 23761 ft | 410 kts | 161° |
| 2026-05-05 09:47 | 18.25843 | 72.92283 | 24195 ft | 412 kts | 161° |
| 2026-05-05 09:48 | 18.23104 | 72.93229 | 24622 ft | 415 kts | 162° |
| 2026-05-05 09:48 | 18.20352 | 72.94179 | 25034 ft | 417 kts | 162° |
| 2026-05-05 09:48 | 18.17623 | 72.95121 | 25427 ft | 419 kts | 162° |
| 2026-05-05 09:48 | 18.14855 | 72.96077 | 25813 ft | 422 kts | 162° |
| 2026-05-05 09:49 | 18.12075 | 72.97057 | 26183 ft | 424 kts | 159° |
| 2026-05-05 09:49 | 18.09386 | 72.98345 | 26533 ft | 426 kts | 151° |
| 2026-05-05 09:49 | 18.06911 | 73.00010 | 26874 ft | 428 kts | 143° |
| 2026-05-05 09:49 | 18.04618 | 73.02026 | 27214 ft | 431 kts | 139° |
| 2026-05-05 09:50 | 18.02407 | 73.04133 | 27539 ft | 433 kts | 138° |
| 2026-05-05 09:50 | 18.00185 | 73.06277 | 27851 ft | 435 kts | 138° |
| 2026-05-05 09:50 | 17.97968 | 73.08415 | 28156 ft | 437 kts | 138° |
| 2026-05-05 09:50 | 17.95719 | 73.10576 | 28457 ft | 439 kts | 138° |
| 2026-05-05 09:51 | 17.93454 | 73.12746 | 28749 ft | 441 kts | 138° |
| 2026-05-05 09:51 | 17.91200 | 73.14902 | 29029 ft | 443 kts | 138° |
| 2026-05-05 09:51 | 17.88932 | 73.17069 | 29304 ft | 445 kts | 138° |
| 2026-05-05 09:51 | 17.86635 | 73.19260 | 29574 ft | 447 kts | 138° |
| 2026-05-05 09:52 | 17.84332 | 73.21455 | 29832 ft | 448 kts | 138° |
| 2026-05-05 09:52 | 17.82049 | 73.23631 | 30092 ft | 450 kts | 138° |
| 2026-05-05 09:52 | 17.79710 | 73.25858 | 30432 ft | 449 kts | 138° |
| 2026-05-05 09:52 | 17.77433 | 73.28027 | 30788 ft | 448 kts | 138° |
| 2026-05-05 09:53 | 17.75116 | 73.30231 | 31133 ft | 447 kts | 138° |
| 2026-05-05 09:53 | 17.72848 | 73.32388 | 31449 ft | 446 kts | 138° |
| 2026-05-05 09:53 | 17.70534 | 73.34588 | 31758 ft | 446 kts | 138° |
| 2026-05-05 09:53 | 17.68239 | 73.36768 | 32054 ft | 445 kts | 138° |
| 2026-05-05 09:54 | 17.65962 | 73.38931 | 32340 ft | 445 kts | 138° |
| 2026-05-05 09:54 | 17.63703 | 73.41077 | 32615 ft | 444 kts | 138° |
| 2026-05-05 09:54 | 17.61387 | 73.43276 | 32889 ft | 444 kts | 139° |
| 2026-05-05 09:54 | 17.59114 | 73.45432 | 33146 ft | 443 kts | 139° |
| 2026-05-05 09:55 | 17.56858 | 73.47572 | 33366 ft | 444 kts | 139° |
| 2026-05-05 09:55 | 17.54579 | 73.49733 | 33555 ft | 445 kts | 139° |
| 2026-05-05 09:55 | 17.52270 | 73.51923 | 33738 ft | 446 kts | 139° |
| 2026-05-05 09:55 | 17.49981 | 73.54091 | 33917 ft | 446 kts | 139° |
| 2026-05-05 09:56 | 17.47687 | 73.56265 | 34095 ft | 447 kts | 139° |
| 2026-05-05 09:56 | 17.45394 | 73.58437 | 34268 ft | 448 kts | 139° |
| 2026-05-05 09:56 | 17.43077 | 73.60631 | 34439 ft | 448 kts | 139° |
| 2026-05-05 09:56 | 17.40775 | 73.62809 | 34607 ft | 449 kts | 139° |
| 2026-05-05 09:57 | 17.38465 | 73.64994 | 34768 ft | 449 kts | 139° |
| 2026-05-05 09:57 | 17.36153 | 73.67181 | 34917 ft | 450 kts | 139° |
| 2026-05-05 09:57 | 17.31498 | 73.71581 | 34945 ft | 451 kts | 139° |
| 2026-05-05 09:58 | 17.26866 | 73.75957 | 34948 ft | 451 kts | 139° |
| 2026-05-05 09:58 | 17.22226 | 73.80338 | 34948 ft | 451 kts | 139° |
| 2026-05-05 09:59 | 17.17572 | 73.84727 | 34948 ft | 451 kts | 139° |
| 2026-05-05 09:59 | 17.12935 | 73.89098 | 34948 ft | 451 kts | 139° |
| 2026-05-05 10:00 | 17.08283 | 73.93479 | 34948 ft | 451 kts | 139° |
| 2026-05-05 10:00 | 17.03645 | 73.97845 | 34948 ft | 451 kts | 139° |
| 2026-05-05 10:01 | 16.98992 | 74.02220 | 34948 ft | 451 kts | 139° |
| 2026-05-05 10:01 | 16.94374 | 74.06559 | 34948 ft | 451 kts | 139° |
| 2026-05-05 10:02 | 16.89792 | 74.11000 | 34948 ft | 451 kts | 135° |
| 2026-05-05 10:02 | 16.85607 | 74.15916 | 34948 ft | 452 kts | 129° |
| 2026-05-05 10:03 | 16.81731 | 74.21036 | 34948 ft | 452 kts | 129° |
| 2026-05-05 10:03 | 16.77855 | 74.26171 | 34948 ft | 452 kts | 129° |
| 2026-05-05 10:04 | 16.73967 | 74.31307 | 34948 ft | 452 kts | 129° |
| 2026-05-05 10:04 | 16.70072 | 74.36446 | 34948 ft | 452 kts | 129° |
| 2026-05-05 10:05 | 16.66173 | 74.41583 | 34948 ft | 452 kts | 129° |
| 2026-05-05 10:05 | 16.62301 | 74.46680 | 34948 ft | 452 kts | 129° |
| 2026-05-05 10:06 | 16.58395 | 74.51818 | 34948 ft | 452 kts | 129° |
| 2026-05-05 10:06 | 16.54499 | 74.56940 | 34948 ft | 452 kts | 129° |
| 2026-05-05 10:07 | 16.50612 | 74.62045 | 34948 ft | 452 kts | 129° |
| 2026-05-05 10:07 | 16.46713 | 74.67168 | 34948 ft | 452 kts | 129° |
| 2026-05-05 10:08 | 16.42805 | 74.72299 | 34948 ft | 452 kts | 129° |
| 2026-05-05 10:08 | 16.38900 | 74.77421 | 34948 ft | 452 kts | 129° |
| 2026-05-05 10:09 | 16.35009 | 74.82518 | 34948 ft | 452 kts | 129° |
| 2026-05-05 10:09 | 16.31094 | 74.87643 | 34948 ft | 452 kts | 129° |
| 2026-05-05 10:10 | 16.27200 | 74.92736 | 34948 ft | 452 kts | 129° |
| 2026-05-05 10:10 | 16.23295 | 74.97839 | 34948 ft | 452 kts | 129° |
| 2026-05-05 10:11 | 16.19394 | 75.02936 | 34948 ft | 452 kts | 129° |
| 2026-05-05 10:11 | 16.15482 | 75.08041 | 34948 ft | 452 kts | 129° |
| 2026-05-05 10:12 | 16.11588 | 75.13120 | 34948 ft | 452 kts | 129° |
| 2026-05-05 10:12 | 16.07677 | 75.18218 | 34948 ft | 452 kts | 129° |
| 2026-05-05 10:13 | 16.03768 | 75.23309 | 34948 ft | 452 kts | 129° |
| 2026-05-05 10:13 | 15.99860 | 75.28396 | 34948 ft | 452 kts | 129° |
| 2026-05-05 10:14 | 15.95940 | 75.33494 | 34948 ft | 452 kts | 129° |
| 2026-05-05 10:14 | 15.92018 | 75.38592 | 34948 ft | 452 kts | 129° |
| 2026-05-05 10:15 | 15.88110 | 75.43667 | 34948 ft | 452 kts | 129° |
| 2026-05-05 10:15 | 15.84197 | 75.48746 | 34948 ft | 452 kts | 129° |
| 2026-05-05 10:16 | 15.80285 | 75.53818 | 34948 ft | 452 kts | 129° |
| 2026-05-05 10:16 | 15.76352 | 75.58916 | 34948 ft | 452 kts | 129° |
| 2026-05-05 10:17 | 15.72429 | 75.63998 | 34948 ft | 452 kts | 129° |
| 2026-05-05 10:17 | 15.68519 | 75.69058 | 34948 ft | 452 kts | 129° |
| 2026-05-05 10:18 | 15.64600 | 75.74127 | 34948 ft | 452 kts | 129° |
| 2026-05-05 10:18 | 15.60667 | 75.79211 | 34948 ft | 452 kts | 129° |
| 2026-05-05 10:19 | 15.56718 | 75.84312 | 34948 ft | 452 kts | 129° |
| 2026-05-05 10:19 | 15.52804 | 75.89364 | 34948 ft | 452 kts | 129° |
| 2026-05-05 10:20 | 15.48892 | 75.94411 | 34948 ft | 452 kts | 129° |
| 2026-05-05 10:20 | 15.44945 | 75.99499 | 34948 ft | 452 kts | 129° |
| 2026-05-05 10:21 | 15.41031 | 76.04539 | 34948 ft | 452 kts | 129° |
| 2026-05-05 10:21 | 15.37106 | 76.09592 | 34948 ft | 452 kts | 129° |
| 2026-05-05 10:22 | 15.33174 | 76.14649 | 34948 ft | 452 kts | 129° |
| 2026-05-05 10:22 | 15.29240 | 76.19710 | 34948 ft | 452 kts | 129° |
| 2026-05-05 10:23 | 15.25285 | 76.24794 | 34948 ft | 452 kts | 129° |
| 2026-05-05 10:23 | 15.21360 | 76.29830 | 34948 ft | 452 kts | 129° |
| 2026-05-05 10:24 | 15.17423 | 76.34878 | 34948 ft | 452 kts | 129° |
| 2026-05-05 10:24 | 15.13481 | 76.39940 | 34948 ft | 452 kts | 129° |
| 2026-05-05 10:25 | 15.09557 | 76.44974 | 34948 ft | 452 kts | 129° |
| 2026-05-05 10:25 | 15.05631 | 76.50002 | 34948 ft | 452 kts | 129° |
| 2026-05-05 10:26 | 15.01674 | 76.55065 | 34949 ft | 452 kts | 129° |
| 2026-05-05 10:26 | 14.97751 | 76.60081 | 34949 ft | 452 kts | 129° |
| 2026-05-05 10:27 | 14.93790 | 76.65142 | 34949 ft | 452 kts | 130° |
| 2026-05-05 10:27 | 14.89847 | 76.70176 | 34948 ft | 452 kts | 130° |
| 2026-05-05 10:28 | 14.85853 | 76.75271 | 34948 ft | 452 kts | 130° |
| 2026-05-05 10:28 | 14.81875 | 76.80343 | 34948 ft | 452 kts | 130° |
| 2026-05-05 10:29 | 14.77947 | 76.85347 | 34948 ft | 452 kts | 130° |
| 2026-05-05 10:29 | 14.73986 | 76.90389 | 34948 ft | 452 kts | 130° |
| 2026-05-05 10:30 | 14.70045 | 76.95400 | 34948 ft | 452 kts | 130° |
| 2026-05-05 10:30 | 14.66091 | 77.00427 | 34948 ft | 452 kts | 130° |
| 2026-05-05 10:31 | 14.62303 | 77.05576 | 34948 ft | 453 kts | 125° |
| 2026-05-05 10:31 | 14.59020 | 77.11180 | 34948 ft | 453 kts | 118° |
| 2026-05-05 10:32 | 14.56378 | 77.17082 | 34948 ft | 454 kts | 112° |
| 2026-05-05 10:32 | 14.54151 | 77.23180 | 34948 ft | 454 kts | 111° |
| 2026-05-05 10:33 | 14.51956 | 77.29250 | 34948 ft | 454 kts | 111° |
| 2026-05-05 10:33 | 14.49743 | 77.35347 | 34948 ft | 454 kts | 111° |
| 2026-05-05 10:34 | 14.47538 | 77.41405 | 34948 ft | 454 kts | 111° |
| 2026-05-05 10:34 | 14.45315 | 77.47503 | 34948 ft | 454 kts | 111° |
| 2026-05-05 10:35 | 14.43095 | 77.53584 | 34948 ft | 454 kts | 111° |
| 2026-05-05 10:35 | 14.40866 | 77.59685 | 34948 ft | 454 kts | 111° |
| 2026-05-05 10:36 | 14.38644 | 77.65763 | 34948 ft | 454 kts | 111° |
| 2026-05-05 10:36 | 14.36429 | 77.71813 | 34948 ft | 454 kts | 111° |
| 2026-05-05 10:37 | 14.34197 | 77.77910 | 34948 ft | 454 kts | 111° |
| 2026-05-05 10:37 | 14.31966 | 77.83994 | 34948 ft | 454 kts | 111° |
| 2026-05-05 10:38 | 14.29747 | 77.90042 | 34948 ft | 454 kts | 111° |
| 2026-05-05 10:38 | 14.27521 | 77.96101 | 34948 ft | 454 kts | 111° |
| 2026-05-05 10:39 | 14.25278 | 78.02203 | 34948 ft | 454 kts | 111° |
| 2026-05-05 10:39 | 14.23043 | 78.08276 | 34948 ft | 454 kts | 111° |
| 2026-05-05 10:40 | 14.20812 | 78.14334 | 34948 ft | 454 kts | 111° |
| 2026-05-05 10:40 | 14.18574 | 78.20405 | 34948 ft | 454 kts | 111° |
| 2026-05-05 10:41 | 14.16348 | 78.26437 | 34948 ft | 454 kts | 111° |
| 2026-05-05 10:41 | 14.14095 | 78.32536 | 34948 ft | 454 kts | 111° |
| 2026-05-05 10:42 | 14.10735 | 78.41620 | 34948 ft | 454 kts | 111° |
| 2026-05-05 10:43 | 14.08493 | 78.47673 | 34948 ft | 454 kts | 111° |
| 2026-05-05 10:43 | 14.06244 | 78.53738 | 34949 ft | 454 kts | 111° |
| 2026-05-05 10:44 | 14.03870 | 78.59753 | 34948 ft | 454 kts | 115° |
| 2026-05-05 10:44 | 14.00940 | 78.65456 | 34948 ft | 453 kts | 122° |
| 2026-05-05 10:45 | 13.97694 | 78.71014 | 34948 ft | 453 kts | 122° |
| 2026-05-05 10:45 | 13.94442 | 78.76556 | 34936 ft | 453 kts | 122° |
| 2026-05-05 10:45 | 13.92824 | 78.79318 | 34579 ft | 454 kts | 122° |
| 2026-05-05 10:46 | 13.91193 | 78.82105 | 34041 ft | 452 kts | 122° |
| 2026-05-05 10:46 | 13.89595 | 78.84835 | 33419 ft | 452 kts | 122° |
| 2026-05-05 10:46 | 13.87984 | 78.87588 | 32762 ft | 452 kts | 122° |
| 2026-05-05 10:46 | 13.86368 | 78.90348 | 32086 ft | 453 kts | 122° |
| 2026-05-05 10:47 | 13.84734 | 78.93138 | 31394 ft | 454 kts | 122° |
| 2026-05-05 10:47 | 13.83115 | 78.95902 | 30700 ft | 454 kts | 122° |
| 2026-05-05 10:47 | 13.81489 | 78.98679 | 29989 ft | 455 kts | 122° |
| 2026-05-05 10:47 | 13.79873 | 79.01437 | 29383 ft | 453 kts | 122° |
| 2026-05-05 10:48 | 13.78261 | 79.04186 | 28939 ft | 447 kts | 122° |
| 2026-05-05 10:48 | 13.76661 | 79.06915 | 28483 ft | 442 kts | 122° |
| 2026-05-05 10:48 | 13.75094 | 79.09585 | 28028 ft | 437 kts | 122° |
| 2026-05-05 10:48 | 13.73520 | 79.12266 | 27567 ft | 433 kts | 122° |
| 2026-05-05 10:49 | 13.71990 | 79.14872 | 27113 ft | 428 kts | 122° |
| 2026-05-05 10:49 | 13.70456 | 79.17483 | 26657 ft | 424 kts | 121° |
| 2026-05-05 10:49 | 13.68948 | 79.20049 | 26204 ft | 421 kts | 121° |
| 2026-05-05 10:49 | 13.67450 | 79.22596 | 25752 ft | 417 kts | 121° |
| 2026-05-05 10:50 | 13.65952 | 79.25143 | 25296 ft | 414 kts | 121° |
| 2026-05-05 10:50 | 13.64479 | 79.27648 | 24845 ft | 410 kts | 121° |
| 2026-05-05 10:50 | 13.63019 | 79.30129 | 24394 ft | 407 kts | 121° |
| 2026-05-05 10:50 | 13.61552 | 79.32622 | 23941 ft | 404 kts | 121° |
| 2026-05-05 10:51 | 13.60110 | 79.35072 | 23492 ft | 401 kts | 121° |
| 2026-05-05 10:51 | 13.58681 | 79.37498 | 23044 ft | 399 kts | 121° |
| 2026-05-05 10:51 | 13.57247 | 79.39932 | 22592 ft | 396 kts | 121° |
| 2026-05-05 10:51 | 13.55832 | 79.42333 | 22143 ft | 393 kts | 121° |
| 2026-05-05 10:52 | 13.54433 | 79.44707 | 21697 ft | 391 kts | 121° |
| 2026-05-05 10:52 | 13.53021 | 79.47103 | 21244 ft | 388 kts | 121° |
| 2026-05-05 10:52 | 13.51630 | 79.49461 | 20795 ft | 386 kts | 121° |
| 2026-05-05 10:52 | 13.50251 | 79.51798 | 20346 ft | 384 kts | 121° |
| 2026-05-05 10:53 | 13.48878 | 79.54125 | 19913 ft | 381 kts | 121° |
| 2026-05-05 10:53 | 13.47517 | 79.56428 | 19742 ft | 369 kts | 121° |
| 2026-05-05 10:53 | 13.46219 | 79.58627 | 19606 ft | 357 kts | 121° |
| 2026-05-05 10:53 | 13.44958 | 79.60762 | 19457 ft | 345 kts | 121° |
| 2026-05-05 10:54 | 13.43721 | 79.62843 | 19307 ft | 334 kts | 122° |
| 2026-05-05 10:54 | 13.42430 | 79.64761 | 19162 ft | 324 kts | 127° |
| 2026-05-05 10:54 | 13.41021 | 79.66522 | 18807 ft | 322 kts | 132° |
| 2026-05-05 10:54 | 13.39495 | 79.68218 | 18405 ft | 321 kts | 133° |
| 2026-05-05 10:55 | 13.37989 | 79.69863 | 18026 ft | 320 kts | 133° |
| 2026-05-05 10:55 | 13.36471 | 79.71519 | 17648 ft | 318 kts | 133° |
| 2026-05-05 10:55 | 13.34968 | 79.73162 | 17276 ft | 316 kts | 133° |
| 2026-05-05 10:55 | 13.33465 | 79.74807 | 16902 ft | 314 kts | 133° |
| 2026-05-05 10:56 | 13.31970 | 79.76445 | 16531 ft | 313 kts | 133° |
| 2026-05-05 10:56 | 13.30508 | 79.78047 | 16167 ft | 311 kts | 133° |
| 2026-05-05 10:56 | 13.29028 | 79.79670 | 15798 ft | 309 kts | 133° |
| 2026-05-05 10:56 | 13.27573 | 79.81265 | 15434 ft | 307 kts | 133° |
| 2026-05-05 10:57 | 13.26119 | 79.82860 | 15070 ft | 306 kts | 133° |
| 2026-05-05 10:57 | 13.24664 | 79.84455 | 14705 ft | 304 kts | 133° |
| 2026-05-05 10:57 | 13.23243 | 79.86012 | 14349 ft | 303 kts | 133° |
| 2026-05-05 10:57 | 13.21814 | 79.87578 | 13990 ft | 301 kts | 133° |
| 2026-05-05 10:58 | 13.20379 | 79.89150 | 13629 ft | 299 kts | 133° |
| 2026-05-05 10:58 | 13.18976 | 79.90687 | 13276 ft | 298 kts | 133° |
| 2026-05-05 10:58 | 13.17557 | 79.92242 | 12917 ft | 296 kts | 133° |
| 2026-05-05 10:58 | 13.16159 | 79.93773 | 12565 ft | 295 kts | 133° |
| 2026-05-05 10:59 | 13.14761 | 79.95303 | 12211 ft | 293 kts | 133° |
| 2026-05-05 10:59 | 13.13362 | 79.96834 | 11858 ft | 292 kts | 133° |
| 2026-05-05 10:59 | 13.11981 | 79.98345 | 11511 ft | 290 kts | 133° |
| 2026-05-05 10:59 | 13.10608 | 79.99848 | 11064 ft | 292 kts | 133° |
| 2026-05-05 11:00 | 13.09223 | 80.01363 | 10532 ft | 296 kts | 133° |
| 2026-05-05 11:00 | 13.07809 | 80.02911 | 10133 ft | 294 kts | 133° |
| 2026-05-05 11:00 | 13.06584 | 80.04535 | 9732 ft | 292 kts | 115° |
| 2026-05-05 11:00 | 13.06139 | 80.06551 | 9308 ft | 290 kts | 88° |
| 2026-05-05 11:01 | 13.06580 | 80.08559 | 8924 ft | 288 kts | 70° |
| 2026-05-05 11:01 | 13.07296 | 80.10459 | 8541 ft | 286 kts | 69° |
| 2026-05-05 11:01 | 13.08019 | 80.12334 | 8140 ft | 285 kts | 69° |
| 2026-05-05 11:01 | 13.08738 | 80.14225 | 7747 ft | 284 kts | 69° |
| 2026-05-05 11:02 | 13.09440 | 80.16103 | 7357 ft | 282 kts | 70° |
| 2026-05-05 11:02 | 13.10139 | 80.17993 | 6963 ft | 281 kts | 70° |
| 2026-05-05 11:02 | 13.10820 | 80.19845 | 6575 ft | 280 kts | 70° |
| 2026-05-05 11:02 | 13.11500 | 80.21701 | 6185 ft | 278 kts | 70° |
| 2026-05-05 11:03 | 13.12177 | 80.23548 | 5950 ft | 271 kts | 70° |
| 2026-05-05 11:03 | 13.12815 | 80.25289 | 5942 ft | 255 kts | 70° |
| 2026-05-05 11:03 | 13.13425 | 80.26944 | 5942 ft | 244 kts | 70° |
| 2026-05-05 11:03 | 13.14042 | 80.28567 | 5945 ft | 245 kts | 70° |
| 2026-05-05 11:04 | 13.14663 | 80.30209 | 5947 ft | 245 kts | 70° |
| 2026-05-05 11:04 | 13.15276 | 80.31835 | 5947 ft | 245 kts | 70° |
| 2026-05-05 11:04 | 13.15885 | 80.33451 | 5947 ft | 245 kts | 70° |
| 2026-05-05 11:04 | 13.16501 | 80.35090 | 5947 ft | 245 kts | 70° |
| 2026-05-05 11:05 | 13.17114 | 80.36716 | 5947 ft | 245 kts | 70° |
| 2026-05-05 11:05 | 13.17725 | 80.38339 | 5808 ft | 241 kts | 70° |
| 2026-05-05 11:05 | 13.18326 | 80.39933 | 5439 ft | 242 kts | 70° |
| 2026-05-05 11:05 | 13.18934 | 80.41544 | 5080 ft | 243 kts | 70° |
| 2026-05-05 11:06 | 13.19548 | 80.43165 | 4745 ft | 242 kts | 70° |
| 2026-05-05 11:06 | 13.20147 | 80.44747 | 4419 ft | 241 kts | 70° |
| 2026-05-05 11:06 | 13.20753 | 80.46345 | 4088 ft | 240 kts | 70° |
| 2026-05-05 11:06 | 13.21347 | 80.47912 | 3765 ft | 240 kts | 70° |
| 2026-05-05 11:07 | 13.21956 | 80.49519 | 3434 ft | 239 kts | 70° |
| 2026-05-05 11:07 | 13.22435 | 80.51109 | 3185 ft | 234 kts | 89° |
| 2026-05-05 11:07 | 13.22017 | 80.52705 | 3180 ft | 233 kts | 128° |
| 2026-05-05 11:07 | 13.20792 | 80.53753 | 3186 ft | 232 kts | 158° |
| 2026-05-05 11:08 | 13.19231 | 80.54052 | 3186 ft | 231 kts | 186° |
| 2026-05-05 11:08 | 13.17724 | 80.53539 | 3185 ft | 232 kts | 214° |
| 2026-05-05 11:08 | 13.16655 | 80.52329 | 3189 ft | 233 kts | 240° |
| 2026-05-05 11:08 | 13.15929 | 80.50848 | 3190 ft | 234 kts | 243° |
| 2026-05-05 11:09 | 13.15228 | 80.49340 | 3187 ft | 234 kts | 243° |
| 2026-05-05 11:09 | 13.14521 | 80.47833 | 3186 ft | 234 kts | 243° |
| 2026-05-05 11:09 | 13.13811 | 80.46339 | 3185 ft | 234 kts | 243° |
| 2026-05-05 11:09 | 13.13086 | 80.44831 | 3185 ft | 234 kts | 242° |
| 2026-05-05 11:10 | 13.12372 | 80.43356 | 3185 ft | 234 kts | 242° |
| 2026-05-05 11:10 | 13.11646 | 80.41862 | 3185 ft | 234 kts | 242° |
| 2026-05-05 11:10 | 13.10920 | 80.40370 | 3185 ft | 234 kts | 242° |
| 2026-05-05 11:10 | 13.10192 | 80.38879 | 3185 ft | 234 kts | 242° |
| 2026-05-05 11:11 | 13.09464 | 80.37388 | 3185 ft | 234 kts | 242° |
| 2026-05-05 11:11 | 13.08731 | 80.35885 | 3214 ft | 237 kts | 242° |
| 2026-05-05 11:11 | 13.07990 | 80.34370 | 3656 ft | 241 kts | 242° |
| 2026-05-05 11:11 | 13.07259 | 80.32873 | 4111 ft | 232 kts | 242° |
| 2026-05-05 11:12 | 13.06539 | 80.31396 | 3952 ft | 232 kts | 242° |
| 2026-05-05 11:12 | 13.05812 | 80.29910 | 3560 ft | 235 kts | 242° |
| 2026-05-05 11:12 | 13.05082 | 80.28419 | 3251 ft | 233 kts | 242° |
| 2026-05-05 11:12 | 13.04359 | 80.26942 | 3189 ft | 232 kts | 242° |
| 2026-05-05 11:13 | 13.03634 | 80.25459 | 3187 ft | 233 kts | 242° |
| 2026-05-05 11:13 | 13.02903 | 80.23965 | 3186 ft | 234 kts | 242° |
| 2026-05-05 11:13 | 13.02172 | 80.22465 | 3185 ft | 234 kts | 242° |
| 2026-05-05 11:13 | 13.01452 | 80.20977 | 3185 ft | 234 kts | 242° |
| 2026-05-05 11:14 | 13.00728 | 80.19482 | 3185 ft | 234 kts | 242° |
| 2026-05-05 11:14 | 13.00009 | 80.18005 | 3185 ft | 234 kts | 242° |
| 2026-05-05 11:14 | 12.99279 | 80.16509 | 3185 ft | 234 kts | 242° |
| 2026-05-05 11:14 | 12.98569 | 80.15021 | 3183 ft | 234 kts | 248° |
| 2026-05-05 11:15 | 12.98347 | 80.13363 | 3181 ft | 236 kts | 273° |
| 2026-05-05 11:15 | 12.98528 | 80.11699 | 3185 ft | 237 kts | 276° |
| 2026-05-05 11:15 | 12.98746 | 80.10015 | 3185 ft | 237 kts | 276° |
| 2026-05-05 11:15 | 12.99013 | 80.08349 | 3178 ft | 238 kts | 288° |
| 2026-05-05 11:16 | 12.99893 | 80.06930 | 3177 ft | 240 kts | 319° |
| 2026-05-05 11:16 | 13.01364 | 80.06148 | 3181 ft | 242 kts | 349° |
| 2026-05-05 11:16 | 13.03025 | 80.06225 | 3183 ft | 242 kts | 20° |
| 2026-05-05 11:16 | 13.04411 | 80.07125 | 3184 ft | 240 kts | 50° |
| 2026-05-05 11:17 | 13.05190 | 80.08621 | 3185 ft | 238 kts | 80° |
| 2026-05-05 11:17 | 13.05149 | 80.10296 | 3184 ft | 235 kts | 109° |
| 2026-05-05 11:17 | 13.04303 | 80.11700 | 3184 ft | 233 kts | 140° |
| 2026-05-05 11:17 | 13.03005 | 80.12675 | 3192 ft | 232 kts | 147° |
| 2026-05-05 11:18 | 13.01672 | 80.13586 | 3188 ft | 232 kts | 147° |
| 2026-05-05 11:18 | 13.00320 | 80.14516 | 3186 ft | 232 kts | 146° |
| 2026-05-05 11:18 | 12.99169 | 80.15672 | 3175 ft | 234 kts | 122° |
| 2026-05-05 11:18 | 12.98667 | 80.17223 | 3174 ft | 226 kts | 96° |
| 2026-05-05 11:19 | 12.98590 | 80.18773 | 3174 ft | 209 kts | 92° |
| 2026-05-05 11:19 | 12.98565 | 80.20199 | 3141 ft | 194 kts | 92° |
| 2026-05-05 11:19 | 12.98538 | 80.21564 | 2882 ft | 192 kts | 93° |
| 2026-05-05 11:19 | 12.98501 | 80.22945 | 2562 ft | 192 kts | 93° |
| 2026-05-05 11:20 | 12.98459 | 80.24296 | 2273 ft | 191 kts | 94° |
| 2026-05-05 11:20 | 12.98414 | 80.25662 | 2196 ft | 191 kts | 94° |
| 2026-05-05 11:20 | 12.98367 | 80.27027 | 2192 ft | 192 kts | 94° |
| 2026-05-05 11:20 | 12.98320 | 80.28394 | 2188 ft | 192 kts | 94° |
| 2026-05-05 11:21 | 12.98272 | 80.29766 | 2186 ft | 192 kts | 94° |
| 2026-05-05 11:21 | 12.98249 | 80.31132 | 2182 ft | 193 kts | 84° |
| 2026-05-05 11:21 | 12.98814 | 80.32362 | 2153 ft | 196 kts | 37° |
| 2026-05-05 11:21 | 13.00062 | 80.32812 | 2181 ft | 196 kts | 353° |
| 2026-05-05 11:22 | 13.01265 | 80.32309 | 2189 ft | 193 kts | 312° |
| 2026-05-05 11:22 | 13.01873 | 80.31138 | 2200 ft | 190 kts | 278° |
| 2026-05-05 11:22 | 13.02070 | 80.29760 | 2204 ft | 190 kts | 275° |
| 2026-05-05 11:22 | 13.02245 | 80.28431 | 2047 ft | 192 kts | 276° |
| 2026-05-05 11:23 | 13.02441 | 80.27075 | 1763 ft | 190 kts | 273° |
| 2026-05-05 11:23 | 13.02327 | 80.25751 | 1596 ft | 182 kts | 253° |
| 2026-05-05 11:23 | 13.01936 | 80.24574 | 1334 ft | 172 kts | 247° |
| 2026-05-05 11:23 | 13.01496 | 80.23476 | 1109 ft | 158 kts | 246° |
| 2026-05-05 11:24 | 13.01104 | 80.22469 | 894 ft | 149 kts | 247° |
| 2026-05-05 11:24 | 13.00733 | 80.21470 | 658 ft | 147 kts | 248° |
| 2026-05-05 11:24 | 13.00383 | 80.20500 | 510 ft | 147 kts | 249° |
| 2026-05-05 11:24 | 13.00019 | 80.19527 | 338 ft | 146 kts | 246° |
| 2026-05-05 11:25 | 12.99643 | 80.18558 | 137 ft | 144 kts | 248° |
| 2026-05-05 11:25 | 12.99301 | 80.17657 | 45 ft | 121 kts | 248° |
| 2026-05-05 11:25 | 12.99060 | 80.17014 | 45 ft | 71 kts | 248° |
| 2026-05-05 11:25 | 12.98922 | 80.16647 | 45 ft | 49 kts | 248° |
| 2026-05-05 11:26 | 12.98843 | 80.16468 | 44 ft | 18 kts | 233° |
| 2026-05-05 11:26 | 12.98756 | 80.16373 | 43 ft | 17 kts | 216° |
| 2026-05-05 11:26 | 12.98661 | 80.16320 | 44 ft | 13 kts | 152° |
| 2026-05-05 11:26 | 12.98633 | 80.16405 | 45 ft | 13 kts | 77° |
| 2026-05-05 11:27 | 12.98665 | 80.16496 | 45 ft | 13 kts | 69° |
| 2026-05-05 11:27 | 12.98697 | 80.16583 | 46 ft | 12 kts | 69° |
| 2026-05-05 11:27 | 12.98727 | 80.16663 | 47 ft | 12 kts | 70° |
| 2026-05-05 11:27 | 12.98707 | 80.16735 | 47 ft | 11 kts | 153° |
| 2026-05-05 11:28 | 12.98640 | 80.16762 | 48 ft | 7 kts | 160° |
| 2026-05-05 11:28 | 12.98590 | 80.16752 | 48 ft | 8 kts | 236° |
| 2026-05-05 11:28 | 12.98569 | 80.16696 | 48 ft | 8 kts | 250° |
| 2026-05-05 11:28 | 12.98532 | 80.16659 | 48 ft | 8 kts | 173° |
| 2026-05-05 11:29 | 12.98482 | 80.16675 | 49 ft | 0 kts | 159° |